Portada
METAR-TAF:

METAR-TAF

Aeroports :

Urgench, Uzbekistan

latitud: 41-35N, longitud: 060-38-42E, altitud: 98 m

Observació

L'informe es va fer fa 38 minuts, a les 04:30 UTC
Vent 4 kt del Nord-Est
Temperatura 30°C
Humitat 21%
Pressió 1011 hPa
Visibilitat 10 km o més
sense núvols per sota de 1500 mi sense presència de cumulonimbus.

METAR: UTNU 300430Z 05004KT CAVOK 30/05 Q1011 R31/CLRD70 NOSIG

Hora: 10:08 (05:08 UTC)

Pronòstic

L'informe es va fer fa 6 hores i 6 minuts, a les 23:02 UTC
Pronòstic vàlid del 30 a les 00 UTC al 30 a les 24 UTC
Vent 10 kt del Nord/Nord-Est amb ràfegues de 20 kt
Visibilitat: 8000 m
Temporalment
l' 30 a les 00 UTC al 30 a les 06 UTC
Vent 6 kt del Nord/Nord-Oest

TAF: UTNU 292302Z 3000/3024 03010G20KT 8000 NSC TEMPO 3000/3006 33006KT

Observacions i pronòstics meteorològics de més de 4000 aeroports (METAR i TAF).

Les estacions disponibles són els punts grocs i vermells al mapa.

Posi el ratolí al punt desitjat per veure el nom de l'estació.

Feu clic per veure les observacions i els pronòstics meteorològics.

Per canviar el mapa: feu clic els botons verds amb una creu de color negre per apropar; al botó verd amb un guió per allunyar la imatge; o en les fletxes verdes per a mapes adjacents.


METAR-TAF: